createdAt,value
2018-07-13T00:02:27.067Z,99.00
2018-07-13T00:04:56.228Z,98.90
2018-07-13T00:07:25.416Z,98.80
2018-07-13T00:09:55.250Z,99.40
2018-07-13T00:12:24.453Z,99.70
2018-07-13T00:15:07.740Z,99.70
2018-07-13T00:17:36.887Z,99.70
2018-07-13T00:20:06.483Z,99.90
2018-07-13T00:22:36.080Z,99.90
2018-07-13T00:25:05.568Z,99.90
2018-07-13T00:27:34.768Z,99.90
2018-07-13T00:30:04.184Z,99.90
2018-07-13T00:32:33.524Z,99.90
2018-07-13T00:35:02.644Z,99.90
2018-07-13T00:37:31.905Z,99.70
2018-07-13T00:40:00.998Z,99.90
2018-07-13T00:42:30.134Z,99.90
2018-07-13T00:44:59.704Z,99.90
2018-07-13T00:47:28.961Z,99.90
2018-07-13T00:49:58.140Z,99.90
2018-07-13T00:52:27.397Z,99.90
2018-07-13T00:54:56.596Z,99.90
2018-07-13T00:57:26.572Z,99.90
2018-07-13T00:59:56.167Z,99.90
2018-07-13T01:02:25.275Z,99.90
2018-07-13T01:04:55.504Z,99.90
2018-07-13T01:07:24.917Z,99.90
2018-07-13T01:09:54.384Z,99.90
2018-07-13T01:12:23.947Z,99.90
2018-07-13T01:14:53.404Z,99.90
2018-07-13T01:17:24.096Z,99.90
2018-07-13T01:19:54.168Z,99.90
2018-07-13T01:22:23.364Z,99.90
2018-07-13T01:24:52.460Z,99.90
2018-07-13T01:27:21.980Z,99.90
2018-07-13T01:29:51.164Z,99.90
2018-07-13T01:32:20.568Z,99.90
2018-07-13T01:34:49.655Z,99.90
2018-07-13T01:37:18.959Z,99.90
2018-07-13T01:39:48.044Z,99.90
2018-07-13T01:42:17.548Z,99.90
2018-07-13T01:44:47.580Z,99.90
2018-07-13T01:47:16.819Z,99.90
2018-07-13T01:49:46.522Z,99.90
2018-07-13T01:52:15.631Z,99.90
2018-07-13T01:54:44.883Z,99.90
2018-07-13T01:57:14.744Z,99.90
2018-07-13T01:59:43.922Z,99.90
2018-07-13T02:02:13.116Z,99.90
2018-07-13T02:04:42.834Z,99.90
2018-07-13T02:07:11.912Z,99.90
2018-07-13T02:09:41.196Z,99.90
2018-07-13T02:12:11.136Z,99.90
2018-07-13T02:14:40.204Z,99.90
2018-07-13T02:17:10.176Z,99.90
2018-07-13T02:22:08.932Z,99.90
2018-07-13T02:24:38.128Z,99.90
2018-07-13T02:27:07.316Z,99.90
2018-07-13T02:29:36.496Z,99.90
2018-07-13T02:32:05.711Z,99.90
2018-07-13T02:34:34.940Z,99.90
2018-07-13T02:37:04.205Z,99.90
2018-07-13T02:39:33.362Z,99.90
2018-07-13T02:42:03.489Z,99.90
2018-07-13T02:44:32.867Z,99.90
2018-07-13T02:47:02.236Z,99.90
2018-07-13T02:49:31.760Z,99.90
2018-07-13T02:52:00.865Z,99.90
2018-07-13T02:54:30.022Z,99.90
2018-07-13T02:56:59.679Z,99.90
2018-07-13T02:59:28.870Z,99.90
2018-07-13T03:01:57.964Z,99.90
2018-07-13T03:04:27.087Z,99.90
2018-07-13T03:06:56.199Z,99.90
2018-07-13T03:09:25.416Z,99.90
2018-07-13T03:11:54.920Z,99.90
2018-07-13T03:14:24.187Z,99.90
2018-07-13T03:16:53.304Z,99.90
2018-07-13T03:19:23.024Z,99.90
2018-07-13T03:21:52.757Z,99.90
2018-07-13T03:24:22.072Z,99.90
2018-07-13T03:26:51.972Z,99.90
2018-07-13T03:29:21.084Z,99.90
2018-07-13T03:31:50.442Z,99.90
2018-07-13T03:34:19.657Z,99.90
2018-07-13T03:36:49.617Z,99.90
2018-07-13T03:39:18.890Z,99.90
2018-07-13T03:41:48.500Z,99.90
2018-07-13T03:44:17.596Z,99.90
2018-07-13T03:46:46.788Z,99.90
2018-07-13T03:49:15.988Z,99.90
2018-07-13T03:51:45.200Z,99.90
2018-07-13T03:54:14.487Z,99.90
2018-07-13T03:56:43.668Z,99.90
2018-07-13T03:59:12.891Z,99.90
2018-07-13T04:01:42.306Z,99.90
2018-07-13T04:04:11.700Z,99.90
2018-07-13T04:06:40.900Z,99.90
2018-07-13T04:09:11.037Z,99.90
2018-07-13T04:11:40.666Z,99.90
2018-07-13T04:14:10.220Z,99.90
2018-07-13T04:16:39.632Z,99.90
2018-07-13T04:19:09.040Z,99.90
2018-07-13T04:21:38.342Z,99.90
2018-07-13T04:24:07.609Z,99.90
2018-07-13T04:26:37.348Z,99.90
2018-07-13T04:29:06.753Z,99.90
2018-07-13T04:31:35.925Z,99.90
2018-07-13T04:34:05.507Z,99.90
2018-07-13T04:36:34.752Z,99.90
2018-07-13T04:39:06.221Z,99.90
2018-07-13T04:41:35.478Z,99.90
2018-07-13T04:44:04.810Z,99.90
2018-07-13T04:46:34.576Z,99.90
2018-07-13T04:49:04.189Z,99.90
2018-07-13T04:51:33.728Z,99.90
2018-07-13T04:54:03.544Z,99.90
2018-07-13T04:56:32.940Z,99.90
2018-07-13T04:59:02.118Z,99.90
2018-07-13T05:01:31.748Z,99.90
2018-07-13T05:04:00.913Z,99.90
2018-07-13T05:06:30.253Z,99.90
2018-07-13T05:08:59.808Z,99.90
2018-07-13T05:11:29.544Z,99.90
2018-07-13T05:13:58.769Z,99.90
2018-07-13T05:16:27.965Z,99.90
2018-07-13T05:18:57.413Z,99.90
2018-07-13T05:21:26.732Z,99.90
2018-07-13T05:26:25.135Z,99.90
2018-07-13T05:28:54.456Z,99.90
2018-07-13T05:31:24.136Z,99.90
2018-07-13T05:33:53.788Z,99.80
2018-07-13T05:36:22.946Z,99.80
2018-07-13T05:38:53.068Z,99.20
2018-07-13T05:41:22.472Z,98.70
2018-07-13T05:43:52.268Z,98.40
2018-07-13T05:46:21.743Z,98.20
2018-07-13T05:48:50.908Z,98.10
2018-07-13T05:51:19.995Z,97.50
2018-07-13T05:53:50.404Z,97.10
2018-07-13T05:56:19.620Z,97.20
2018-07-13T05:58:48.825Z,96.80
2018-07-13T06:01:18.332Z,96.60
2018-07-13T06:03:48.461Z,96.60
2018-07-13T06:06:18.334Z,96.40
2018-07-13T06:08:47.940Z,96.10
2018-07-13T06:11:17.151Z,96.10
2018-07-13T06:13:46.388Z,95.70
2018-07-13T06:16:16.180Z,95.80
2018-07-13T06:18:45.343Z,95.50
2018-07-13T06:21:14.653Z,94.60
2018-07-13T06:23:44.041Z,95.10
2018-07-13T06:26:13.152Z,94.70
2018-07-13T06:28:42.340Z,94.00
2018-07-13T06:31:11.956Z,93.40
2018-07-13T06:33:41.152Z,92.90
2018-07-13T06:36:10.352Z,92.30
2018-07-13T06:38:39.784Z,92.00
2018-07-13T06:41:10.100Z,91.30
2018-07-13T06:43:39.380Z,90.30
2018-07-13T06:46:08.989Z,89.50
2018-07-13T06:48:38.188Z,89.90
2018-07-13T06:51:07.361Z,89.60
2018-07-13T06:53:36.969Z,89.10
2018-07-13T06:56:06.520Z,89.50
2018-07-13T06:58:52.609Z,89.70
2018-07-13T07:01:22.533Z,88.80
2018-07-13T07:04:39.231Z,88.70
2018-07-13T07:08:36.259Z,87.80
2018-07-13T07:11:05.552Z,88.20
2018-07-13T07:13:40.600Z,89.10
2018-07-13T07:16:10.089Z,87.60
2018-07-13T07:18:39.694Z,86.80
2018-07-13T07:21:09.556Z,88.50
2018-07-13T07:23:38.984Z,89.00
2018-07-13T08:02:34.868Z,60.90
2018-07-13T08:05:04.096Z,65.40
2018-07-13T08:07:33.814Z,60.40
2018-07-13T08:10:03.104Z,61.30
2018-07-13T08:12:34.306Z,60.80
2018-07-13T08:17:35.201Z,61.20
2018-07-13T08:20:05.765Z,58.80
2018-07-13T08:22:45.262Z,55.80
2018-07-13T08:25:17.187Z,51.90
2018-07-13T08:27:57.689Z,49.30
2018-07-13T09:13:43.453Z,41.30
2018-07-13T09:18:48.692Z,40.40
2018-07-13T09:21:20.008Z,40.30
2018-07-13T09:24:03.190Z,37.20
2018-07-13T09:26:36.347Z,37.30
2018-07-13T09:29:14.812Z,36.60
2018-07-13T09:31:47.740Z,34.80
2018-07-13T09:34:20.168Z,32.50
2018-07-13T09:36:53.820Z,31.30
2018-07-13T09:42:05.525Z,35.90
2018-07-13T09:44:35.316Z,38.40
2018-07-13T09:47:05.634Z,43.40
2018-07-13T09:49:36.264Z,43.80
2018-07-13T09:52:06.860Z,40.80
2018-07-13T09:54:36.300Z,37.60
2018-07-13T09:57:06.598Z,36.90
2018-07-13T09:59:36.187Z,35.40
2018-07-13T10:08:56.140Z,34.10
2018-07-13T10:11:26.282Z,37.60
2018-07-13T10:13:56.580Z,36.90
2018-07-13T10:18:55.989Z,33.90
2018-07-13T10:23:59.296Z,29.60
2018-07-13T10:26:37.885Z,28.30
2018-07-13T10:29:13.716Z,32.10
2018-07-13T10:31:44.181Z,31.00
2018-07-13T10:34:16.687Z,33.00
2018-07-13T10:37:08.878Z,34.70
2018-07-13T10:39:39.861Z,35.60
2018-07-13T10:44:45.536Z,33.60
2018-07-13T10:47:16.170Z,33.60
2018-07-13T10:49:46.343Z,36.60
2018-07-13T10:52:22.960Z,36.90
2018-07-13T10:55:03.005Z,35.10
2018-07-13T10:57:42.945Z,31.80
2018-07-13T11:00:21.997Z,30.00
2018-07-13T11:03:02.634Z,29.70
2018-07-13T11:05:43.533Z,32.80
2018-07-13T11:08:23.256Z,36.70
2018-07-13T11:13:42.298Z,39.50
2018-07-13T11:16:13.208Z,42.30
2018-07-13T11:18:45.150Z,41.80
2018-07-13T11:23:57.560Z,42.20
2018-07-13T11:29:14.264Z,40.30
2018-07-13T11:31:54.914Z,41.00
2018-07-13T11:34:27.089Z,40.80
2018-07-13T11:37:02.044Z,41.40
2018-07-13T11:39:33.615Z,41.40
2018-07-13T11:42:04.368Z,41.60
2018-07-13T11:44:36.581Z,39.10
2018-07-13T11:47:06.535Z,40.50
2018-07-13T11:49:35.645Z,39.40
2018-07-13T11:52:05.512Z,40.90
2018-07-13T11:54:34.538Z,41.30
2018-07-13T11:57:03.578Z,41.20
2018-07-13T11:59:32.922Z,36.20
2018-07-13T12:02:01.989Z,35.50
2018-07-13T12:04:31.300Z,35.70
2018-07-13T12:07:00.396Z,36.10
2018-07-13T12:09:29.515Z,34.40
2018-07-13T12:11:58.561Z,34.70
2018-07-13T12:14:28.702Z,36.40
2018-07-13T12:43:55.625Z,34.70
2018-07-13T12:46:27.104Z,37.30
2018-07-13T12:49:01.539Z,38.30
2018-07-13T12:51:31.772Z,37.40
2018-07-13T12:59:11.121Z,39.00
2018-07-13T13:01:41.865Z,37.70
2018-07-13T13:09:20.367Z,35.40
2018-07-13T13:11:53.788Z,37.00
2018-07-13T13:14:27.989Z,38.50
2018-07-13T13:16:59.167Z,37.50
2018-07-13T13:19:33.803Z,38.00
2018-07-13T13:27:12.304Z,37.90
2018-07-13T13:29:49.587Z,39.70
2018-07-13T13:32:27.205Z,40.80
2018-07-13T13:35:00.913Z,42.00
2018-07-13T13:37:33.272Z,43.00
2018-07-13T13:40:06.800Z,42.60
2018-07-13T13:42:37.549Z,43.30
2018-07-13T13:47:39.421Z,43.80
2018-07-13T13:50:09.896Z,45.10
2018-07-13T13:52:40.870Z,44.30
2018-07-13T13:55:13.130Z,43.50
2018-07-13T13:57:42.717Z,43.60
2018-07-13T14:00:13.372Z,41.50
2018-07-13T14:02:42.469Z,43.60
2018-07-13T14:05:13.184Z,42.60
2018-07-13T14:07:43.528Z,42.10
2018-07-13T14:10:15.924Z,43.00
2018-07-13T14:12:47.576Z,43.40
2018-07-13T14:15:18.783Z,44.30
2018-07-13T14:17:50.381Z,43.60
2018-07-13T14:20:21.365Z,44.00
2018-07-13T14:22:52.445Z,45.70
2018-07-13T14:25:24.026Z,46.00
2018-07-13T14:27:57.174Z,48.00
2018-07-13T14:30:28.840Z,48.00
2018-07-13T14:33:01.745Z,48.00
2018-07-13T14:35:33.185Z,48.10
2018-07-13T14:38:05.669Z,49.40
2018-07-13T14:40:36.796Z,49.90
2018-07-13T14:43:07.842Z,50.30
2018-07-13T14:45:42.360Z,49.30
2018-07-13T14:48:12.628Z,49.60
2018-07-13T14:50:47.437Z,49.00
2018-07-13T14:53:17.604Z,47.90
2018-07-13T14:58:18.930Z,46.70
2018-07-13T15:00:49.784Z,46.50
2018-07-13T15:03:20.077Z,45.60
2018-07-13T15:05:54.068Z,43.80
2018-07-13T15:08:24.572Z,43.90
2018-07-13T15:10:55.032Z,42.50
2018-07-13T15:13:28.445Z,41.80
2018-07-13T15:16:00.585Z,43.60
2018-07-13T15:18:32.653Z,43.70
2018-07-13T15:21:03.476Z,44.00
2018-07-13T15:23:37.737Z,44.40
2018-07-13T15:26:09.460Z,45.40
2018-07-13T15:28:39.447Z,44.50
2018-07-13T15:31:09.681Z,45.40
2018-07-13T15:33:41.265Z,46.40
2018-07-13T15:36:12.685Z,45.30
2018-07-13T15:38:44.757Z,45.80
2018-07-13T15:41:16.128Z,46.00
2018-07-13T15:43:46.680Z,46.80
2018-07-13T15:46:17.058Z,44.40
2018-07-13T15:48:49.942Z,45.00
2018-07-13T15:51:29.501Z,44.10
2018-07-13T15:54:02.576Z,46.00
2018-07-13T15:56:34.740Z,46.70
2018-07-13T15:59:04.967Z,47.80
2018-07-13T16:01:35.433Z,47.80
2018-07-13T16:04:09.957Z,47.40
2018-07-13T16:06:40.474Z,46.90
2018-07-13T16:09:10.317Z,47.00
2018-07-13T16:11:40.486Z,46.50
2018-07-13T16:14:09.692Z,46.60
2018-07-13T16:16:43.413Z,45.70
2018-07-13T16:19:15.596Z,47.00
2018-07-13T16:21:47.110Z,47.50
2018-07-13T16:24:17.229Z,47.20
2018-07-13T16:26:49.080Z,47.60
2018-07-13T16:29:19.213Z,46.60
2018-07-13T16:31:52.730Z,46.00
2018-07-13T16:34:24.360Z,46.60
2018-07-13T16:36:55.197Z,47.00
2018-07-13T16:39:27.009Z,47.10
2018-07-13T16:41:59.838Z,47.30
2018-07-13T16:44:30.937Z,47.40
2018-07-13T16:47:01.721Z,46.70
2018-07-13T16:49:31.585Z,47.40
2018-07-13T16:52:01.249Z,47.00
2018-07-13T16:54:32.568Z,47.20
2018-07-13T16:57:03.018Z,47.40
2018-07-13T16:59:35.604Z,48.80
2018-07-13T17:02:05.717Z,48.80
2018-07-13T17:07:06.382Z,50.00
2018-07-13T17:09:37.764Z,50.70
2018-07-13T17:12:10.260Z,49.90
2018-07-13T17:14:42.296Z,47.60
2018-07-13T17:17:13.029Z,47.20
2018-07-13T17:19:45.867Z,45.30
2018-07-13T17:22:18.761Z,47.10
2018-07-13T17:24:50.427Z,46.90
2018-07-13T17:27:21.348Z,46.60
2018-07-13T17:29:55.165Z,47.10
2018-07-13T17:32:25.787Z,47.30
2018-07-13T17:34:59.101Z,47.60
2018-07-13T17:37:31.659Z,48.40
2018-07-13T17:42:38.459Z,48.50
2018-07-13T17:45:12.052Z,48.90
2018-07-13T17:47:44.369Z,49.20
2018-07-13T17:50:14.962Z,49.40
2018-07-13T17:52:46.408Z,49.80
2018-07-13T17:55:16.908Z,49.80
2018-07-13T17:57:49.826Z,49.80
2018-07-13T18:00:21.560Z,49.80
2018-07-13T18:02:52.536Z,50.30
2018-07-13T18:05:23.422Z,50.60
2018-07-13T18:10:28.624Z,50.80
2018-07-13T18:13:07.746Z,51.20
2018-07-13T18:15:38.479Z,51.40
2018-07-13T18:18:17.332Z,50.90
2018-07-13T18:20:51.792Z,51.20
2018-07-13T18:23:23.867Z,52.00
2018-07-13T18:25:59.847Z,52.30
2018-07-13T18:28:35.336Z,52.30
2018-07-13T18:31:08.180Z,52.80
2018-07-13T18:33:40.420Z,53.40
2018-07-13T18:36:09.958Z,53.40
2018-07-13T18:38:42.905Z,53.20
2018-07-13T18:41:14.029Z,53.50
2018-07-13T18:43:52.503Z,54.10
2018-07-13T18:46:29.157Z,54.50
2018-07-13T18:49:02.089Z,55.10
2018-07-13T18:51:35.565Z,56.10
2018-07-13T18:54:10.282Z,55.80
2018-07-13T18:56:39.636Z,55.60
2018-07-13T18:59:12.229Z,55.20
2018-07-13T19:01:41.527Z,55.60
2018-07-13T19:06:41.464Z,56.10
2018-07-13T19:11:41.793Z,56.50
2018-07-13T19:14:12.860Z,56.40
2018-07-13T19:16:42.387Z,57.00
2018-07-13T19:19:12.505Z,56.90
2018-07-13T19:21:43.856Z,57.20
2018-07-13T19:24:14.321Z,57.80
2018-07-13T19:26:46.246Z,60.60
2018-07-13T19:29:16.040Z,60.20
2018-07-13T19:31:48.276Z,60.30
2018-07-13T19:34:17.495Z,62.00
2018-07-13T19:39:17.375Z,61.50
2018-07-13T19:41:47.444Z,62.90
2018-07-13T19:44:18.652Z,67.00
2018-07-13T19:46:53.497Z,66.50
2018-07-13T19:49:24.928Z,67.20
2018-07-13T19:51:55.599Z,68.90
2018-07-13T19:54:39.900Z,68.60
2018-07-13T19:57:22.969Z,69.00
2018-07-13T20:00:00.256Z,69.70
2018-07-13T20:02:39.471Z,70.80
2018-07-13T20:05:21.553Z,71.00
2018-07-13T20:07:56.892Z,73.10
2018-07-13T20:10:29.630Z,73.20
2018-07-13T20:13:07.132Z,73.60
2018-07-13T20:15:48.907Z,74.20
2018-07-13T20:23:46.202Z,77.00
2018-07-13T20:28:56.669Z,77.40
2018-07-13T20:31:38.590Z,78.10
2018-07-13T20:34:15.744Z,79.30
2018-07-13T20:36:48.025Z,79.90
2018-07-13T20:39:19.330Z,79.50
2018-07-13T20:44:25.349Z,82.30
2018-07-13T20:51:53.236Z,84.20
2018-07-13T20:54:22.301Z,84.20
2018-07-13T20:56:51.393Z,84.30
2018-07-13T20:59:20.505Z,84.60
2018-07-13T21:01:50.041Z,84.50
2018-07-13T21:04:19.216Z,84.50
2018-07-13T21:06:49.152Z,85.10
2018-07-13T21:09:18.636Z,85.10
2018-07-13T21:11:48.385Z,86.50
2018-07-13T21:14:18.038Z,86.80
2018-07-13T21:16:47.657Z,87.30
2018-07-13T21:19:18.937Z,87.30
2018-07-13T21:21:49.157Z,86.30
2018-07-13T21:24:18.240Z,86.00
2018-07-13T21:26:48.493Z,86.70
2018-07-13T21:29:18.992Z,87.00
2018-07-13T21:31:50.045Z,87.40
2018-07-13T21:34:19.665Z,87.20
2018-07-13T21:39:20.786Z,87.80
2018-07-13T21:41:50.982Z,88.80
2018-07-13T21:44:21.208Z,89.80
2018-07-13T21:46:52.684Z,90.20
2018-07-13T21:49:23.868Z,90.10
2018-07-13T21:51:53.258Z,90.40
2018-07-13T21:56:53.292Z,90.00
2018-07-13T22:01:54.253Z,90.50
2018-07-13T22:06:56.281Z,90.80
2018-07-13T22:09:29.392Z,90.70
2018-07-13T22:12:00.308Z,91.00
2018-07-13T22:14:34.379Z,90.70
2018-07-13T22:19:34.399Z,91.20
2018-07-13T22:24:35.617Z,91.80
2018-07-13T22:27:05.677Z,92.40
2018-07-13T22:29:38.237Z,92.50
2018-07-13T22:32:09.704Z,92.60
2018-07-13T22:34:39.420Z,92.80
2018-07-13T22:37:13.004Z,92.90
2018-07-13T22:39:43.325Z,93.10
2018-07-13T22:42:14.601Z,93.20
2018-07-13T22:47:17.903Z,93.30
2018-07-13T22:49:48.720Z,93.20
2018-07-13T22:52:18.932Z,93.20
2018-07-13T22:54:48.385Z,93.20
2018-07-13T22:59:50.656Z,93.60
2018-07-13T23:02:23.220Z,93.70
2018-07-13T23:04:52.604Z,93.90
2018-07-13T23:07:22.517Z,94.20
2018-07-13T23:09:54.022Z,94.50
2018-07-13T23:14:55.261Z,94.60
2018-07-13T23:17:31.278Z,94.40
2018-07-13T23:20:02.243Z,94.60
2018-07-13T23:22:32.969Z,94.70
2018-07-13T23:25:03.100Z,94.60
2018-07-13T23:27:34.806Z,94.90
2018-07-13T23:32:34.997Z,95.10
2018-07-13T23:35:07.545Z,95.20
2018-07-13T23:37:38.759Z,95.10
2018-07-13T23:40:10.285Z,94.90
2018-07-13T23:42:40.689Z,94.90
2018-07-13T23:45:10.411Z,94.90
2018-07-13T23:47:43.232Z,94.90
2018-07-13T23:50:14.216Z,94.70
2018-07-13T23:52:45.565Z,94.90
2018-07-13T23:55:17.139Z,94.90
2018-07-13T23:57:51.390Z,94.90
